createdAt,value
2022-07-25T00:00:34.516Z,22.75
2022-07-25T00:01:34.605Z,22.73
2022-07-25T00:02:34.494Z,22.72
2022-07-25T00:03:34.505Z,22.70
2022-07-25T00:04:34.587Z,22.70
2022-07-25T00:05:37.749Z,22.70
2022-07-25T00:06:34.455Z,22.72
2022-07-25T00:07:34.446Z,22.72
2022-07-25T00:08:34.451Z,22.75
2022-07-25T00:09:34.439Z,22.75
2022-07-25T00:10:34.597Z,22.76
2022-07-25T00:11:34.404Z,22.79
2022-07-25T00:12:34.391Z,22.79
2022-07-25T00:13:34.403Z,22.83
2022-07-25T00:14:34.371Z,22.85
2022-07-25T00:15:34.425Z,22.88
2022-07-25T00:16:34.395Z,22.91
2022-07-25T00:17:34.348Z,22.94
2022-07-25T00:18:34.344Z,22.95
2022-07-25T00:19:34.321Z,23.00
2022-07-25T00:20:34.315Z,23.00
2022-07-25T00:21:34.304Z,23.02
2022-07-25T00:22:34.298Z,23.05
2022-07-25T00:23:34.678Z,23.05
2022-07-25T00:24:34.268Z,23.07
2022-07-25T00:25:34.259Z,23.09
2022-07-25T00:26:39.466Z,23.09
2022-07-25T00:27:35.239Z,23.09
2022-07-25T00:28:34.224Z,23.10
2022-07-25T00:29:34.260Z,23.10
2022-07-25T00:30:34.207Z,23.10
2022-07-25T00:31:34.286Z,23.10
2022-07-25T00:32:34.190Z,23.12
2022-07-25T00:33:34.176Z,23.10
2022-07-25T00:34:34.181Z,23.10
2022-07-25T00:35:34.161Z,23.12
2022-07-25T00:36:34.145Z,23.12
2022-07-25T00:37:34.135Z,23.09
2022-07-25T00:38:34.123Z,23.05
2022-07-25T00:39:35.671Z,23.05
2022-07-25T00:40:34.106Z,23.04
2022-07-25T00:41:34.097Z,23.01
2022-07-25T00:42:34.085Z,23.02
2022-07-25T00:43:34.072Z,22.98
2022-07-25T00:44:34.076Z,22.95
2022-07-25T00:45:34.053Z,22.92
2022-07-25T00:46:34.088Z,22.88
2022-07-25T00:47:34.032Z,22.88
2022-07-25T00:48:34.099Z,22.85
2022-07-25T00:49:34.030Z,22.82
2022-07-25T00:50:33.995Z,22.79
2022-07-25T00:51:33.991Z,22.73
2022-07-25T00:52:33.981Z,22.68
2022-07-25T00:53:33.973Z,22.61
2022-07-25T00:54:33.989Z,22.54
2022-07-25T00:55:33.946Z,22.45
2022-07-25T00:56:33.952Z,22.40
2022-07-25T00:57:33.932Z,22.33
2022-07-25T00:58:33.921Z,22.27
2022-07-25T00:59:33.918Z,22.21
2022-07-25T01:00:33.893Z,22.17
2022-07-25T01:01:33.988Z,22.10
2022-07-25T01:02:33.917Z,22.06
2022-07-25T01:03:33.868Z,22.00
2022-07-25T01:04:33.864Z,21.90
2022-07-25T01:05:33.846Z,21.86
2022-07-25T01:06:33.832Z,21.80
2022-07-25T01:07:33.823Z,21.75
2022-07-25T01:08:33.813Z,21.72
2022-07-25T01:09:33.817Z,21.69
2022-07-25T01:10:33.794Z,21.62
2022-07-25T01:11:33.784Z,21.59
2022-07-25T01:12:33.769Z,21.54
2022-07-25T01:13:33.762Z,21.49
2022-07-25T01:14:33.762Z,21.46
2022-07-25T01:15:33.837Z,21.42
2022-07-25T01:16:33.736Z,21.40
2022-07-25T01:17:33.730Z,21.37
2022-07-25T01:18:33.767Z,21.32
2022-07-25T01:19:33.716Z,21.31
2022-07-25T01:20:33.688Z,21.31
2022-07-25T01:21:33.685Z,21.29
2022-07-25T01:22:33.671Z,21.27
2022-07-25T01:23:33.664Z,21.24
2022-07-25T01:24:33.681Z,21.24
2022-07-25T01:25:33.642Z,21.22
2022-07-25T01:26:33.628Z,21.22
2022-07-25T01:27:33.620Z,21.21
2022-07-25T01:28:33.612Z,21.21
2022-07-25T01:29:33.612Z,21.21
2022-07-25T01:30:33.594Z,21.19
2022-07-25T01:31:33.643Z,21.19
2022-07-25T01:32:33.571Z,21.17
2022-07-25T01:33:33.558Z,21.17
2022-07-25T01:34:33.565Z,21.14
2022-07-25T01:35:33.538Z,21.14
2022-07-25T01:36:33.527Z,21.13
2022-07-25T01:37:33.520Z,21.10
2022-07-25T01:38:33.513Z,21.10
2022-07-25T01:39:33.515Z,21.09
2022-07-25T01:40:33.488Z,21.07
2022-07-25T01:41:33.484Z,21.04
2022-07-25T01:42:33.467Z,21.04
2022-07-25T01:43:33.459Z,21.03
2022-07-25T01:44:33.460Z,21.01
2022-07-25T01:45:33.448Z,20.98
2022-07-25T01:46:33.498Z,20.97
2022-07-25T01:47:33.420Z,20.95
2022-07-25T01:48:33.423Z,20.94
2022-07-25T01:49:33.454Z,20.92
2022-07-25T01:50:33.406Z,20.91
2022-07-25T01:51:33.385Z,20.92
2022-07-25T01:52:33.364Z,20.92
2022-07-25T01:53:33.390Z,20.92
2022-07-25T01:54:33.362Z,20.91
2022-07-25T01:55:33.339Z,20.92
2022-07-25T01:56:33.337Z,20.94
2022-07-25T01:57:33.314Z,20.89
2022-07-25T01:58:33.314Z,20.92
2022-07-25T01:59:33.307Z,20.91
2022-07-25T02:00:33.302Z,20.92
2022-07-25T02:01:33.356Z,20.95
2022-07-25T02:02:33.276Z,20.97
2022-07-25T02:03:33.335Z,20.98
2022-07-25T02:04:33.276Z,20.97
2022-07-25T02:05:33.232Z,20.95
2022-07-25T02:06:33.222Z,20.95
2022-07-25T02:07:33.215Z,20.91
2022-07-25T02:08:33.204Z,20.89
2022-07-25T02:09:33.206Z,20.84
2022-07-25T02:10:33.196Z,20.79
2022-07-25T02:11:33.176Z,20.73
2022-07-25T02:12:33.160Z,20.67
2022-07-25T02:13:33.152Z,20.61
2022-07-25T02:14:33.154Z,20.52
2022-07-25T02:15:33.128Z,20.47
2022-07-25T02:16:33.142Z,20.39
2022-07-25T02:17:33.115Z,20.38
2022-07-25T02:18:33.098Z,20.35
2022-07-25T02:19:33.105Z,20.35
2022-07-25T02:20:33.078Z,20.35
2022-07-25T02:21:33.067Z,20.35
2022-07-25T02:22:33.057Z,20.36
2022-07-25T02:23:33.049Z,20.39
2022-07-25T02:24:33.051Z,20.39
2022-07-25T02:25:33.026Z,20.41
2022-07-25T02:26:33.016Z,20.42
2022-07-25T02:27:33.011Z,20.41
2022-07-25T02:28:32.995Z,20.42
2022-07-25T02:29:33.000Z,20.41
2022-07-25T02:30:33.030Z,20.39
2022-07-25T02:31:32.963Z,20.39
2022-07-25T02:32:32.954Z,20.39
2022-07-25T02:33:32.941Z,20.38
2022-07-25T02:34:32.947Z,20.38
2022-07-25T02:35:32.926Z,20.36
2022-07-25T02:36:32.916Z,20.38
2022-07-25T02:37:32.901Z,20.36
2022-07-25T02:38:32.888Z,20.33
2022-07-25T02:39:32.923Z,20.35
2022-07-25T02:40:32.870Z,20.33
2022-07-25T02:41:32.859Z,20.33
2022-07-25T02:42:32.846Z,20.33
2022-07-25T02:43:32.836Z,20.33
2022-07-25T02:44:32.841Z,20.32
2022-07-25T02:45:32.817Z,20.33
2022-07-25T02:46:32.939Z,20.33
2022-07-25T02:47:32.798Z,20.32
2022-07-25T02:48:32.831Z,20.32
2022-07-25T02:49:32.789Z,20.32
2022-07-25T02:50:32.761Z,20.32
2022-07-25T02:51:32.753Z,20.32
2022-07-25T02:52:32.742Z,20.32
2022-07-25T02:53:55.897Z,20.31
2022-07-25T02:54:33.737Z,20.31
2022-07-25T02:55:32.716Z,20.28
2022-07-25T02:56:32.700Z,20.28
2022-07-25T02:57:32.689Z,20.28
2022-07-25T02:58:32.679Z,20.28
2022-07-25T02:59:32.690Z,20.24
2022-07-25T03:00:32.669Z,20.24
2022-07-25T03:01:32.738Z,20.21
2022-07-25T03:02:32.635Z,20.21
2022-07-25T03:03:32.682Z,20.21
2022-07-25T03:04:32.691Z,20.21
2022-07-25T03:05:32.607Z,20.23
2022-07-25T03:06:32.599Z,20.23
2022-07-25T03:07:32.587Z,20.21
2022-07-25T03:08:32.573Z,20.21
2022-07-25T03:09:32.586Z,20.21
2022-07-25T03:10:32.556Z,20.21
2022-07-25T03:11:32.544Z,20.20
2022-07-25T03:12:32.537Z,20.20
2022-07-25T03:13:32.523Z,20.20
2022-07-25T03:14:32.509Z,20.20
2022-07-25T03:15:32.520Z,20.17
2022-07-25T03:16:32.593Z,20.20
2022-07-25T03:17:32.480Z,20.18
2022-07-25T03:18:32.477Z,20.17
2022-07-25T03:19:32.466Z,20.16
2022-07-25T03:20:32.460Z,20.16
2022-07-25T03:21:32.438Z,20.14
2022-07-25T03:22:32.429Z,20.11
2022-07-25T03:23:32.420Z,20.13
2022-07-25T03:24:32.411Z,20.13
2022-07-25T03:25:32.413Z,20.13
2022-07-25T03:26:32.382Z,20.11
2022-07-25T03:27:32.375Z,20.13
2022-07-25T03:28:32.370Z,20.13
2022-07-25T03:29:32.411Z,20.14
2022-07-25T03:30:32.389Z,20.16
2022-07-25T03:31:32.428Z,20.16
2022-07-25T03:32:32.323Z,20.16
2022-07-25T03:33:32.311Z,20.16
2022-07-25T03:34:32.303Z,20.16
2022-07-25T03:35:32.306Z,20.18
2022-07-25T03:36:32.290Z,20.18
2022-07-25T03:37:32.268Z,20.18
2022-07-25T03:38:32.336Z,20.20
2022-07-25T03:39:32.247Z,20.20
2022-07-25T03:40:32.249Z,20.23
2022-07-25T03:41:32.229Z,20.23
2022-07-25T03:42:35.386Z,20.26
2022-07-25T03:43:32.207Z,20.28
2022-07-25T03:44:32.196Z,20.28
2022-07-25T03:45:32.284Z,20.29
2022-07-25T03:46:32.177Z,20.31
2022-07-25T03:47:32.183Z,20.29
2022-07-25T03:48:32.219Z,20.32
2022-07-25T03:49:32.142Z,20.32
2022-07-25T03:50:32.152Z,20.33
2022-07-25T03:51:32.123Z,20.32
2022-07-25T03:52:32.114Z,20.32
2022-07-25T03:53:32.099Z,20.31
2022-07-25T03:54:32.093Z,20.28
2022-07-25T03:55:32.097Z,20.26
2022-07-25T03:56:32.073Z,20.26
2022-07-25T03:57:32.062Z,20.24
2022-07-25T03:58:32.061Z,20.21
2022-07-25T03:59:32.039Z,20.17
2022-07-25T04:00:32.045Z,20.14
2022-07-25T04:01:32.069Z,20.13
2022-07-25T04:02:32.032Z,20.13
2022-07-25T04:03:32.003Z,20.10
2022-07-25T04:04:31.988Z,20.08
2022-07-25T04:05:31.993Z,20.06
2022-07-25T04:06:31.967Z,20.03
2022-07-25T04:07:31.955Z,20.02
2022-07-25T04:08:31.943Z,20.01
2022-07-25T04:09:33.611Z,20.01
2022-07-25T04:10:31.950Z,19.99
2022-07-25T04:11:31.911Z,19.98
2022-07-25T04:12:31.904Z,19.96
2022-07-25T04:13:31.890Z,19.96
2022-07-25T04:14:31.888Z,19.95
2022-07-25T04:15:31.893Z,19.94
2022-07-25T04:16:31.882Z,19.94
2022-07-25T04:17:31.855Z,19.94
2022-07-25T04:18:31.844Z,19.94
2022-07-25T04:19:31.832Z,19.94
2022-07-25T04:20:31.832Z,19.95
2022-07-25T04:21:31.807Z,19.95
2022-07-25T04:22:31.796Z,19.94
2022-07-25T04:23:31.788Z,19.94
2022-07-25T04:24:31.776Z,19.92
2022-07-25T04:25:31.781Z,19.94
2022-07-25T04:26:31.755Z,19.94
2022-07-25T04:27:31.743Z,19.92
2022-07-25T04:28:31.735Z,19.92
2022-07-25T04:29:31.727Z,19.92
2022-07-25T04:30:31.728Z,19.92
2022-07-25T04:31:31.725Z,19.92
2022-07-25T04:32:31.697Z,19.95
2022-07-25T04:33:31.681Z,19.95
2022-07-25T04:34:31.669Z,19.96
2022-07-25T04:35:31.682Z,19.96
2022-07-25T04:36:31.653Z,19.98
2022-07-25T04:37:31.638Z,20.01
2022-07-25T04:38:31.629Z,20.02
2022-07-25T04:39:31.624Z,20.01
2022-07-25T04:40:31.624Z,20.03
2022-07-25T04:41:31.598Z,20.03
2022-07-25T04:42:31.597Z,20.08
2022-07-25T04:43:31.577Z,20.11
2022-07-25T04:44:31.569Z,20.11
2022-07-25T04:45:31.619Z,20.16
2022-07-25T04:46:31.550Z,20.18
2022-07-25T04:47:31.592Z,20.21
2022-07-25T04:48:31.585Z,20.21
2022-07-25T04:49:31.511Z,20.26
2022-07-25T04:50:31.519Z,20.26
2022-07-25T04:51:31.496Z,20.29
2022-07-25T04:52:31.510Z,20.31
2022-07-25T04:53:31.473Z,20.32
2022-07-25T04:54:31.462Z,20.33
2022-07-25T04:55:31.464Z,20.35
2022-07-25T04:56:31.440Z,20.35
2022-07-25T04:57:31.427Z,20.36
2022-07-25T04:58:31.417Z,20.35
2022-07-25T04:59:31.415Z,20.33
2022-07-25T05:00:31.462Z,20.35
2022-07-25T05:01:31.502Z,20.35
2022-07-25T05:02:31.495Z,20.36
2022-07-25T05:03:31.373Z,20.32
2022-07-25T05:04:31.358Z,20.32
2022-07-25T05:05:31.359Z,20.32
2022-07-25T05:06:31.339Z,20.31
2022-07-25T05:07:31.323Z,20.31
2022-07-25T05:08:31.316Z,20.28
2022-07-25T05:09:31.300Z,20.26
2022-07-25T05:10:31.316Z,20.24
2022-07-25T05:11:31.279Z,20.24
2022-07-25T05:12:31.274Z,20.23
2022-07-25T05:13:31.316Z,20.21
2022-07-25T05:14:31.252Z,20.21
2022-07-25T05:15:31.335Z,20.20
2022-07-25T05:16:31.281Z,20.20
2022-07-25T05:17:31.229Z,20.21
2022-07-25T05:18:31.228Z,20.20
2022-07-25T05:19:31.199Z,20.21
2022-07-25T05:20:31.202Z,20.26
2022-07-25T05:21:31.178Z,20.24
2022-07-25T05:22:31.169Z,20.28
2022-07-25T05:23:31.158Z,20.28
2022-07-25T05:24:31.149Z,20.28
2022-07-25T05:25:31.146Z,20.28
2022-07-25T05:26:31.130Z,20.26
2022-07-25T05:27:31.119Z,20.28
2022-07-25T05:28:31.115Z,20.29
2022-07-25T05:29:31.094Z,20.31
2022-07-25T05:30:32.693Z,20.35
2022-07-25T05:31:31.145Z,20.31
2022-07-25T05:32:31.065Z,20.32
2022-07-25T05:33:31.053Z,20.33
2022-07-25T05:34:31.040Z,20.33
2022-07-25T05:35:31.047Z,20.32
2022-07-25T05:36:31.019Z,20.33
2022-07-25T05:37:31.015Z,20.33
2022-07-25T05:38:31.001Z,20.35
2022-07-25T05:39:31.008Z,20.36
2022-07-25T05:40:30.997Z,20.39
2022-07-25T05:41:30.973Z,20.41
2022-07-25T05:42:30.960Z,20.47
2022-07-25T05:43:30.946Z,20.51
2022-07-25T05:44:30.934Z,20.54
2022-07-25T05:45:30.982Z,20.57
2022-07-25T05:46:30.933Z,20.58
2022-07-25T05:47:30.918Z,20.59
2022-07-25T05:48:30.941Z,20.58
2022-07-25T05:49:30.892Z,20.64
2022-07-25T05:50:30.876Z,20.64
2022-07-25T05:51:30.875Z,20.67
2022-07-25T05:52:30.933Z,20.69
2022-07-25T05:53:30.842Z,20.70
2022-07-25T05:54:30.833Z,20.73
2022-07-25T05:55:30.819Z,20.76
2022-07-25T05:56:30.824Z,20.79
2022-07-25T05:57:30.889Z,20.82
2022-07-25T05:58:30.797Z,20.85
2022-07-25T05:59:30.782Z,20.88
2022-07-25T06:00:30.769Z,20.91
2022-07-25T06:01:30.835Z,20.95
2022-07-25T06:02:30.888Z,20.98
2022-07-25T06:03:30.809Z,21.03
2022-07-25T06:04:30.726Z,21.06
2022-07-25T06:05:30.712Z,21.09
2022-07-25T06:06:30.718Z,21.10
2022-07-25T06:07:30.743Z,21.13
2022-07-25T06:08:30.685Z,21.14
2022-07-25T06:09:30.677Z,21.16
2022-07-25T06:10:30.669Z,21.19
2022-07-25T06:11:31.022Z,21.19
2022-07-25T06:12:30.643Z,21.21
2022-07-25T06:13:30.664Z,21.24
2022-07-25T06:14:30.629Z,21.24
2022-07-25T06:15:30.609Z,21.24
2022-07-25T06:16:30.786Z,21.27
2022-07-25T06:17:32.491Z,21.29
2022-07-25T06:18:30.582Z,21.31
2022-07-25T06:19:30.570Z,21.32
2022-07-25T06:20:30.562Z,21.34
2022-07-25T06:21:30.561Z,21.37
2022-07-25T06:22:30.540Z,21.38
2022-07-25T06:23:30.530Z,21.42
2022-07-25T06:24:30.518Z,21.42
2022-07-25T06:25:30.529Z,21.43
2022-07-25T06:26:30.516Z,21.47
2022-07-25T06:27:30.490Z,21.50
2022-07-25T06:28:30.488Z,21.52
2022-07-25T06:29:30.497Z,21.56
2022-07-25T06:30:30.457Z,21.59
2022-07-25T06:31:30.554Z,21.62
2022-07-25T06:32:30.440Z,21.67
2022-07-25T06:33:30.431Z,21.69
2022-07-25T06:34:30.416Z,21.72
2022-07-25T06:35:30.433Z,21.79
2022-07-25T06:36:32.371Z,21.82
2022-07-25T06:37:30.387Z,21.86
2022-07-25T06:38:30.382Z,21.91
2022-07-25T06:39:30.369Z,21.96
2022-07-25T06:40:30.371Z,21.98
2022-07-25T06:41:30.366Z,21.99
2022-07-25T06:42:30.335Z,22.05
2022-07-25T06:43:30.325Z,22.10
2022-07-25T06:44:30.340Z,22.12
2022-07-25T06:45:30.306Z,22.17
2022-07-25T06:46:30.370Z,22.18
2022-07-25T06:47:35.539Z,22.22
2022-07-25T06:48:31.343Z,22.25
2022-07-25T06:49:30.265Z,22.28
2022-07-25T06:50:30.258Z,22.33
2022-07-25T06:51:30.255Z,22.33
2022-07-25T06:52:30.236Z,22.39
2022-07-25T06:53:30.225Z,22.40
2022-07-25T06:54:30.214Z,22.43
2022-07-25T06:55:30.206Z,22.46
2022-07-25T06:56:30.210Z,22.51
2022-07-25T06:57:30.183Z,22.55
2022-07-25T06:58:30.178Z,22.58
2022-07-25T06:59:30.165Z,22.61
2022-07-25T07:00:30.220Z,22.62
2022-07-25T07:01:38.763Z,22.62
2022-07-25T07:02:32.749Z,22.65
2022-07-25T07:03:30.172Z,22.65
2022-07-25T07:04:30.110Z,22.70
2022-07-25T07:05:30.097Z,22.75
2022-07-25T07:06:31.774Z,22.76
2022-07-25T07:07:30.080Z,22.79
2022-07-25T07:08:30.076Z,22.85
2022-07-25T07:09:30.061Z,22.90
2022-07-25T07:10:30.051Z,22.94
2022-07-25T07:11:30.054Z,23.00
2022-07-25T07:12:30.034Z,23.04
2022-07-25T07:13:30.025Z,23.09
2022-07-25T07:14:30.021Z,23.12
2022-07-25T07:15:30.003Z,23.16
2022-07-25T07:16:30.347Z,23.20
2022-07-25T07:17:29.982Z,23.25
2022-07-25T07:18:29.973Z,23.28
2022-07-25T07:19:30.081Z,23.35
2022-07-25T07:20:29.950Z,23.40
2022-07-25T07:21:29.959Z,23.47
2022-07-25T07:22:29.929Z,23.51
2022-07-25T07:23:29.918Z,23.57
2022-07-25T07:24:29.907Z,23.61
2022-07-25T07:25:29.898Z,23.66
2022-07-25T07:26:29.914Z,23.69
2022-07-25T07:27:29.874Z,23.75
2022-07-25T07:28:29.864Z,23.78
2022-07-25T07:29:29.853Z,23.85
2022-07-25T07:30:50.583Z,23.91
2022-07-25T07:31:30.867Z,23.97
2022-07-25T07:32:29.824Z,24.03
2022-07-25T07:33:29.813Z,24.08
2022-07-25T07:34:29.808Z,24.15
2022-07-25T07:35:29.792Z,24.20
2022-07-25T07:36:30.798Z,24.24
2022-07-25T07:37:35.762Z,24.31
2022-07-25T07:38:30.767Z,24.37
2022-07-25T07:39:29.749Z,24.43
2022-07-25T07:40:29.742Z,24.50
2022-07-25T07:41:29.742Z,24.60
2022-07-25T07:42:29.719Z,24.67
2022-07-25T07:43:30.448Z,24.73
2022-07-25T07:44:29.701Z,24.80
2022-07-25T07:45:29.686Z,24.87
2022-07-25T07:46:29.869Z,24.96
2022-07-25T07:47:29.691Z,25.02
2022-07-25T07:48:29.738Z,25.10
2022-07-25T07:49:29.793Z,25.20
2022-07-25T07:50:29.639Z,25.28
2022-07-25T07:51:29.645Z,25.36
2022-07-25T07:52:29.619Z,25.42
2022-07-25T07:53:29.604Z,25.47
2022-07-25T07:54:29.599Z,25.55
2022-07-25T07:55:29.590Z,25.60
2022-07-25T07:56:29.597Z,25.67
2022-07-25T07:57:29.570Z,25.75
2022-07-25T07:58:29.565Z,25.83
2022-07-25T07:59:29.641Z,25.95
2022-07-25T08:00:29.553Z,26.07
2022-07-25T08:01:29.601Z,26.18
2022-07-25T08:02:29.551Z,26.28
2022-07-25T08:03:29.505Z,26.39
2022-07-25T08:04:29.583Z,26.48
2022-07-25T08:05:29.502Z,26.52
2022-07-25T08:06:29.490Z,26.58
2022-07-25T08:07:29.470Z,26.63
2022-07-25T08:08:31.579Z,26.69
2022-07-25T08:09:29.446Z,26.76
2022-07-25T08:10:29.430Z,26.84
2022-07-25T08:11:29.468Z,26.91
2022-07-25T08:12:29.410Z,26.95
2022-07-25T08:13:30.283Z,27.03
2022-07-25T08:14:29.393Z,27.06
2022-07-25T08:15:29.397Z,27.07
2022-07-25T08:16:29.451Z,27.10
2022-07-25T08:17:29.427Z,27.12
2022-07-25T08:18:29.350Z,27.21
2022-07-25T08:19:29.345Z,27.25
2022-07-25T08:20:37.816Z,27.27
2022-07-25T08:21:30.324Z,27.29
2022-07-25T08:22:29.330Z,27.31
2022-07-25T08:23:29.302Z,27.29
2022-07-25T08:24:29.288Z,27.27
2022-07-25T08:25:29.283Z,27.22
2022-07-25T08:26:29.279Z,27.19
2022-07-25T08:27:29.282Z,27.17
2022-07-25T08:28:29.253Z,27.17
2022-07-25T08:29:29.241Z,27.14
2022-07-25T08:30:29.247Z,27.13
2022-07-25T08:31:29.375Z,27.12
2022-07-25T08:32:29.222Z,27.10
2022-07-25T08:33:29.207Z,27.07
2022-07-25T08:34:29.194Z,27.12
2022-07-25T08:35:29.180Z,27.14
2022-07-25T08:36:34.510Z,27.18
2022-07-25T08:37:30.172Z,27.22
2022-07-25T08:38:29.152Z,27.27
2022-07-25T08:39:29.142Z,27.29
2022-07-25T08:40:29.135Z,27.36
2022-07-25T08:41:29.121Z,27.40
2022-07-25T08:42:29.124Z,27.47
2022-07-25T08:43:29.103Z,27.55
2022-07-25T08:44:29.109Z,27.65
2022-07-25T08:45:29.085Z,27.70
2022-07-25T08:46:29.131Z,27.74
2022-07-25T08:47:29.074Z,27.78
2022-07-25T08:48:29.077Z,27.82
2022-07-25T08:49:29.045Z,27.92
2022-07-25T08:50:29.035Z,27.97
2022-07-25T08:51:29.024Z,28.00
2022-07-25T08:52:29.033Z,28.04
2022-07-25T08:53:34.103Z,28.11
2022-07-25T08:54:30.128Z,28.18
2022-07-25T08:55:28.980Z,28.25
2022-07-25T08:56:28.973Z,28.30
2022-07-25T08:57:28.976Z,28.33
2022-07-25T08:58:28.949Z,28.39
2022-07-25T08:59:28.950Z,28.48
2022-07-25T09:00:28.930Z,28.55
2022-07-25T09:01:32.991Z,28.56
2022-07-25T09:02:30.042Z,28.61
2022-07-25T09:03:28.985Z,28.70
2022-07-25T09:04:28.889Z,28.74
2022-07-25T09:05:28.886Z,28.81
2022-07-25T09:06:28.917Z,28.90
2022-07-25T09:07:28.875Z,28.95
2022-07-25T09:08:28.848Z,29.05
2022-07-25T09:09:28.837Z,29.09
2022-07-25T09:10:28.828Z,29.18
2022-07-25T09:11:28.835Z,29.21
2022-07-25T09:12:28.845Z,29.23
2022-07-25T09:13:28.799Z,29.26
2022-07-25T09:14:28.785Z,29.26
2022-07-25T09:15:28.886Z,29.26
2022-07-25T09:16:28.797Z,29.27
2022-07-25T09:17:28.775Z,29.28
2022-07-25T09:18:28.749Z,29.23
2022-07-25T09:19:28.739Z,29.16
2022-07-25T09:20:28.728Z,29.16
2022-07-25T09:21:28.717Z,29.19
2022-07-25T09:22:28.716Z,29.18
2022-07-25T09:23:28.698Z,29.14
2022-07-25T09:24:28.683Z,29.14
2022-07-25T09:25:28.681Z,29.16
2022-07-25T09:26:28.663Z,29.16
2022-07-25T09:27:28.669Z,29.15
2022-07-25T09:28:28.650Z,29.14
2022-07-25T09:29:28.636Z,29.16
2022-07-25T09:30:28.623Z,29.18
2022-07-25T09:31:28.702Z,29.23
2022-07-25T09:32:28.693Z,29.27
2022-07-25T09:33:28.593Z,29.27
2022-07-25T09:34:28.584Z,29.28
2022-07-25T09:35:28.575Z,29.30
2022-07-25T09:36:28.565Z,29.31
2022-07-25T09:37:28.566Z,29.36
2022-07-25T09:38:28.540Z,29.34
2022-07-25T09:39:28.534Z,29.36
2022-07-25T09:40:28.525Z,29.37
2022-07-25T09:41:28.513Z,29.33
2022-07-25T09:42:28.518Z,29.33
2022-07-25T09:43:28.496Z,29.39
2022-07-25T09:44:28.497Z,29.43
2022-07-25T09:45:31.571Z,29.42
2022-07-25T09:46:28.503Z,29.43
2022-07-25T09:47:28.479Z,29.39
2022-07-25T09:48:28.494Z,29.42
2022-07-25T09:49:28.437Z,29.43
2022-07-25T09:50:28.421Z,29.43
2022-07-25T09:51:28.415Z,29.48
2022-07-25T09:52:28.412Z,29.55
2022-07-25T09:53:28.391Z,29.61
2022-07-25T09:54:28.386Z,29.70
2022-07-25T09:55:28.375Z,29.76
2022-07-25T09:56:28.362Z,29.83
2022-07-25T09:57:28.369Z,29.89
2022-07-25T09:58:28.343Z,29.95
2022-07-25T09:59:28.341Z,30.00
2022-07-25T10:00:28.323Z,30.07
2022-07-25T10:01:28.375Z,30.16
2022-07-25T10:02:28.413Z,30.24
2022-07-25T10:03:28.294Z,30.31
2022-07-25T10:04:28.283Z,30.37
2022-07-25T10:05:28.275Z,30.39
2022-07-25T10:06:28.261Z,30.38
2022-07-25T10:07:31.506Z,30.46
2022-07-25T10:08:28.242Z,30.55
2022-07-25T10:09:28.234Z,30.62
2022-07-25T10:10:28.225Z,30.67
2022-07-25T10:11:28.215Z,30.69
2022-07-25T10:12:28.230Z,30.70
2022-07-25T10:13:28.207Z,30.75
2022-07-25T10:14:28.183Z,30.70
2022-07-25T10:15:28.180Z,30.70
2022-07-25T10:16:28.261Z,30.70
2022-07-25T10:17:28.173Z,30.65
2022-07-25T10:18:28.159Z,30.61
2022-07-25T10:19:28.150Z,30.53
2022-07-25T10:20:28.130Z,30.47
2022-07-25T10:21:28.826Z,30.37
2022-07-25T10:22:53.873Z,30.32
2022-07-25T10:23:29.118Z,30.24
2022-07-25T10:24:28.090Z,30.26
2022-07-25T10:25:28.081Z,30.20
2022-07-25T10:26:28.065Z,30.20
2022-07-25T10:27:28.059Z,30.20
2022-07-25T10:28:28.058Z,30.19
2022-07-25T10:29:28.036Z,30.16
2022-07-25T10:30:28.083Z,30.16
2022-07-25T10:31:28.118Z,30.15
2022-07-25T10:32:28.004Z,30.15
2022-07-25T10:33:28.014Z,30.20
2022-07-25T10:34:27.990Z,30.27
2022-07-25T10:35:27.975Z,30.43
2022-07-25T10:36:28.046Z,30.55
2022-07-25T10:37:27.959Z,30.67
2022-07-25T10:38:27.990Z,30.75
2022-07-25T10:39:27.937Z,30.80
2022-07-25T10:40:27.925Z,30.83
2022-07-25T10:41:27.914Z,30.89
2022-07-25T10:42:27.902Z,30.97
2022-07-25T10:43:27.910Z,30.97
2022-07-25T10:44:27.886Z,31.02
2022-07-25T10:45:27.877Z,31.14
2022-07-25T10:46:28.093Z,31.23
2022-07-25T10:47:27.853Z,31.28
2022-07-25T10:48:27.952Z,31.35
2022-07-25T10:49:32.099Z,31.38
2022-07-25T10:50:53.681Z,31.20
2022-07-25T10:51:28.813Z,31.12
2022-07-25T10:52:27.900Z,31.04
2022-07-25T10:53:27.812Z,30.94
2022-07-25T10:54:27.835Z,30.80
2022-07-25T10:55:27.778Z,30.73
2022-07-25T10:56:27.765Z,30.65
2022-07-25T10:57:31.772Z,30.58
2022-07-25T10:58:27.835Z,30.53
2022-07-25T10:59:27.733Z,30.47
2022-07-25T11:00:27.745Z,30.45
2022-07-25T11:01:27.820Z,30.45
2022-07-25T11:02:27.837Z,30.32
2022-07-25T11:03:27.716Z,30.24
2022-07-25T11:04:27.689Z,30.10
2022-07-25T11:05:27.677Z,30.00
2022-07-25T11:06:27.664Z,29.90
2022-07-25T11:07:27.710Z,29.80
2022-07-25T11:08:27.643Z,29.73
2022-07-25T11:09:28.217Z,29.64
2022-07-25T11:10:27.622Z,29.53
2022-07-25T11:11:27.617Z,29.48
2022-07-25T11:12:27.605Z,29.42
2022-07-25T11:13:27.598Z,29.36
2022-07-25T11:14:27.595Z,29.33
2022-07-25T11:15:27.580Z,29.26
2022-07-25T11:16:27.655Z,29.18
2022-07-25T11:17:27.569Z,29.12
2022-07-25T11:18:27.542Z,29.06
2022-07-25T11:19:27.610Z,29.02
2022-07-25T11:20:27.530Z,28.93
2022-07-25T11:21:27.529Z,28.90
2022-07-25T11:22:27.508Z,28.88
2022-07-25T11:23:27.498Z,28.86
2022-07-25T11:24:27.499Z,28.85
2022-07-25T11:25:27.480Z,28.74
2022-07-25T11:26:27.470Z,28.59
2022-07-25T11:27:27.460Z,28.37
2022-07-25T11:28:27.443Z,28.21
2022-07-25T11:29:27.448Z,28.00
2022-07-25T11:30:27.426Z,27.81
2022-07-25T11:31:27.479Z,27.66
2022-07-25T11:32:27.402Z,27.57
2022-07-25T11:33:27.400Z,27.47
2022-07-25T11:34:27.406Z,27.37
2022-07-25T11:35:27.377Z,27.29
2022-07-25T11:36:27.360Z,27.25
2022-07-25T11:37:27.351Z,27.21
2022-07-25T11:38:27.341Z,27.19
2022-07-25T11:39:27.353Z,27.19
2022-07-25T11:40:27.320Z,27.14
2022-07-25T11:41:27.311Z,27.17
2022-07-25T11:42:27.302Z,27.17
2022-07-25T11:43:27.292Z,27.18
2022-07-25T11:44:27.297Z,27.21
2022-07-25T11:45:27.283Z,27.22
2022-07-25T11:46:27.325Z,27.24
2022-07-25T11:47:27.258Z,27.27
2022-07-25T11:48:27.260Z,27.27
2022-07-25T11:49:27.326Z,27.28
2022-07-25T11:50:27.221Z,27.28
2022-07-25T11:51:27.214Z,27.29
2022-07-25T11:52:27.210Z,27.29
2022-07-25T11:53:27.194Z,27.29
2022-07-25T11:54:27.194Z,27.28
2022-07-25T11:55:27.175Z,27.29
2022-07-25T11:56:43.620Z,27.29
2022-07-25T11:57:28.164Z,27.31
2022-07-25T11:58:27.163Z,27.31
2022-07-25T11:59:27.155Z,27.36
2022-07-25T12:00:27.122Z,27.36
2022-07-25T12:01:27.110Z,27.36
2022-07-25T12:02:27.199Z,27.37
2022-07-25T12:03:27.202Z,27.36
2022-07-25T12:04:27.101Z,27.34
2022-07-25T12:05:27.072Z,27.32
2022-07-25T12:06:27.061Z,27.31
2022-07-25T12:07:27.055Z,27.25
2022-07-25T12:08:27.044Z,27.24
2022-07-25T12:09:27.031Z,27.21
2022-07-25T12:10:27.046Z,27.21
2022-07-25T12:11:27.010Z,27.19
2022-07-25T12:12:27.003Z,27.19
2022-07-25T12:13:26.994Z,27.19
2022-07-25T12:14:26.982Z,27.21
2022-07-25T12:15:26.985Z,27.22
2022-07-25T12:16:27.007Z,27.22
2022-07-25T12:17:26.952Z,27.28
2022-07-25T12:18:26.965Z,27.18
2022-07-25T12:19:26.929Z,27.19
2022-07-25T12:20:26.920Z,27.27
2022-07-25T12:21:26.908Z,27.32
2022-07-25T12:22:26.905Z,27.37
2022-07-25T12:23:26.901Z,27.46
2022-07-25T12:24:26.883Z,27.55
2022-07-25T12:25:30.873Z,27.63
2022-07-25T12:26:26.858Z,27.66
2022-07-25T12:27:26.897Z,27.70
2022-07-25T12:28:26.866Z,27.75
2022-07-25T12:29:26.832Z,27.79
2022-07-25T12:30:26.929Z,27.82
2022-07-25T12:31:26.943Z,27.85
2022-07-25T12:32:26.806Z,27.88
2022-07-25T12:33:26.795Z,27.88
2022-07-25T12:34:26.797Z,27.90
2022-07-25T12:35:26.776Z,27.93
2022-07-25T12:36:26.760Z,28.00
2022-07-25T12:37:26.748Z,28.06
2022-07-25T12:38:26.740Z,28.12
2022-07-25T12:39:26.743Z,28.12
2022-07-25T12:40:26.723Z,28.14
2022-07-25T12:41:26.712Z,28.17
2022-07-25T12:42:26.703Z,28.21
2022-07-25T12:43:26.688Z,28.25
2022-07-25T12:44:26.694Z,28.48
2022-07-25T12:45:26.673Z,28.66
2022-07-25T12:46:26.725Z,28.66
2022-07-25T12:47:26.649Z,28.59
2022-07-25T12:48:26.722Z,28.64
2022-07-25T12:49:26.644Z,28.68
2022-07-25T12:50:26.619Z,28.68
2022-07-25T12:51:26.608Z,28.76
2022-07-25T12:52:26.599Z,28.77